createdAt,value
2022-12-23T00:01:35.962Z,7.58
2022-12-23T00:04:06.002Z,7.54
2022-12-23T00:06:35.533Z,7.49
2022-12-23T00:09:06.028Z,7.42
2022-12-23T00:11:55.457Z,7.37
2022-12-23T00:14:43.938Z,7.31
2022-12-23T00:17:28.875Z,7.24
2022-12-23T00:20:03.835Z,7.17
2022-12-23T00:22:52.163Z,7.13
2022-12-23T00:25:40.631Z,7.08
2022-12-23T00:28:15.088Z,7.03
2022-12-23T00:30:55.287Z,7.01
2022-12-23T00:33:32.043Z,6.99
2022-12-23T00:36:02.229Z,6.95
2022-12-23T00:38:50.382Z,6.94
2022-12-23T00:41:38.391Z,6.91
2022-12-23T00:44:07.478Z,6.86
2022-12-23T00:46:37.309Z,6.83
2022-12-23T00:49:25.542Z,6.82
2022-12-23T00:51:54.746Z,6.80
2022-12-23T00:54:24.447Z,6.79
2022-12-23T00:56:54.240Z,6.79
2022-12-23T00:59:23.369Z,6.79
2022-12-23T01:02:11.549Z,6.79
2022-12-23T01:04:59.308Z,6.78
2022-12-23T01:07:28.516Z,6.76
2022-12-23T01:09:57.796Z,6.76
2022-12-23T01:12:27.619Z,6.76
2022-12-23T01:14:56.931Z,6.75
2022-12-23T01:17:26.093Z,6.73
2022-12-23T01:19:55.224Z,6.71
2022-12-23T01:22:24.404Z,6.69
2022-12-23T01:24:53.734Z,6.68
2022-12-23T01:27:22.926Z,6.66
2022-12-23T01:29:52.095Z,6.67
2022-12-23T01:32:21.493Z,6.66
2022-12-23T01:34:50.859Z,6.66
2022-12-23T01:37:22.509Z,6.64
2022-12-23T01:39:51.801Z,6.61
2022-12-23T01:42:40.092Z,6.58
2022-12-23T01:45:31.348Z,6.55
2022-12-23T01:48:26.901Z,6.51
2022-12-23T01:51:05.043Z,6.50
2022-12-23T01:53:43.193Z,6.51
2022-12-23T01:56:37.068Z,6.51
2022-12-23T01:59:37.405Z,6.50
2022-12-23T02:02:26.037Z,6.48
2022-12-23T02:04:56.556Z,6.48
2022-12-23T02:07:47.206Z,6.49
2022-12-23T02:10:16.876Z,6.48
2022-12-23T02:12:51.867Z,6.48
2022-12-23T02:15:56.662Z,6.49
2022-12-23T02:18:47.654Z,6.47
2022-12-23T02:21:44.171Z,6.42
2022-12-23T02:24:25.809Z,6.37
2022-12-23T02:27:26.927Z,6.34
2022-12-23T02:30:47.532Z,6.30
2022-12-23T02:33:37.279Z,6.28
2022-12-23T02:36:38.379Z,6.25
2022-12-23T02:39:48.513Z,6.24
2022-12-23T02:42:58.839Z,6.24
2022-12-23T02:45:56.880Z,6.21
2022-12-23T02:48:53.921Z,6.20
2022-12-23T02:51:29.472Z,6.19
2022-12-23T02:54:04.766Z,6.20
2022-12-23T02:56:37.121Z,6.20
2022-12-23T02:59:22.079Z,6.16
2022-12-23T03:01:53.374Z,6.11
2022-12-23T03:04:25.546Z,6.11
2022-12-23T03:06:57.787Z,6.12
2022-12-23T03:09:59.719Z,6.12
2022-12-23T03:13:03.385Z,6.08
2022-12-23T03:16:15.640Z,6.04
2022-12-23T03:19:25.947Z,5.99
2022-12-23T03:22:28.192Z,5.93
2022-12-23T03:25:17.560Z,5.89
2022-12-23T03:27:55.151Z,5.85
2022-12-23T03:30:28.076Z,5.82
2022-12-23T03:33:08.160Z,5.80
2022-12-23T03:35:44.759Z,5.77
2022-12-23T03:38:17.751Z,5.74
2022-12-23T03:41:14.028Z,5.72
2022-12-23T03:43:51.251Z,5.65
2022-12-23T03:46:31.111Z,5.58
2022-12-23T03:49:07.265Z,5.52
2022-12-23T03:52:21.065Z,5.46
2022-12-23T03:54:58.041Z,5.38
2022-12-23T03:57:55.864Z,5.33
2022-12-23T04:00:30.544Z,5.26
2022-12-23T04:03:24.900Z,5.23
2022-12-23T04:06:00.743Z,5.14
2022-12-23T04:08:37.585Z,5.06
2022-12-23T04:11:07.191Z,5.00
2022-12-23T04:13:38.952Z,4.98
2022-12-23T04:16:08.629Z,4.90
2022-12-23T04:18:37.843Z,4.94
2022-12-23T04:21:06.920Z,4.96
2022-12-23T04:23:36.202Z,4.96
2022-12-23T04:26:05.292Z,4.95
2022-12-23T04:28:34.415Z,4.95
2022-12-23T04:31:03.745Z,4.95
2022-12-23T04:33:33.240Z,4.93
2022-12-23T04:36:02.638Z,4.92
2022-12-23T04:38:35.271Z,4.91
2022-12-23T04:41:08.052Z,4.90
2022-12-23T04:43:37.646Z,4.95
2022-12-23T04:46:07.492Z,4.99
2022-12-23T04:48:37.027Z,5.04
2022-12-23T04:51:06.646Z,5.09
2022-12-23T04:53:37.909Z,5.14
2022-12-23T04:56:07.912Z,5.19
2022-12-23T04:58:37.815Z,5.24
2022-12-23T05:01:11.293Z,5.27
2022-12-23T05:03:43.091Z,5.33
2022-12-23T05:06:14.946Z,5.38
2022-12-23T05:08:44.471Z,5.39
2022-12-23T05:11:13.840Z,5.40
2022-12-23T05:13:43.565Z,5.39
2022-12-23T05:16:13.063Z,5.40
2022-12-23T05:18:42.463Z,5.41
2022-12-23T05:21:11.928Z,5.42
2022-12-23T05:23:42.727Z,5.42
2022-12-23T05:26:12.330Z,5.45
2022-12-23T05:28:43.206Z,5.49
2022-12-23T05:31:13.886Z,5.51
2022-12-23T05:33:44.202Z,5.54
2022-12-23T05:36:13.727Z,5.58
2022-12-23T05:38:42.805Z,5.62
2022-12-23T05:41:11.936Z,5.64
2022-12-23T05:43:41.460Z,5.63
2022-12-23T05:46:10.555Z,5.66
2022-12-23T05:48:39.695Z,5.72
2022-12-23T05:51:08.973Z,5.76
2022-12-23T05:53:38.127Z,5.74
2022-12-23T05:56:08.123Z,5.74
2022-12-23T05:58:39.648Z,5.73
2022-12-23T06:01:10.574Z,5.73
2022-12-23T06:03:42.793Z,5.72
2022-12-23T06:06:12.253Z,5.74
2022-12-23T06:08:41.466Z,5.77
2022-12-23T06:11:10.736Z,5.77
2022-12-23T06:13:39.984Z,5.79
2022-12-23T06:16:09.267Z,5.81
2022-12-23T06:18:38.712Z,5.82
2022-12-23T06:21:07.729Z,5.84
2022-12-23T06:23:36.937Z,5.85
2022-12-23T06:26:06.449Z,5.83
2022-12-23T06:28:36.150Z,5.84
2022-12-23T06:31:09.183Z,5.85
2022-12-23T06:33:39.314Z,5.87
2022-12-23T06:36:09.471Z,5.87
2022-12-23T06:38:40.301Z,5.87
2022-12-23T06:41:14.937Z,5.83
2022-12-23T06:43:45.676Z,5.82
2022-12-23T06:46:20.614Z,5.81
2022-12-23T06:48:52.846Z,5.78
2022-12-23T06:51:30.615Z,5.77
2022-12-23T06:54:02.153Z,5.76
2022-12-23T06:56:34.974Z,5.76
2022-12-23T06:59:06.624Z,5.75
2022-12-23T07:01:41.171Z,5.76
2022-12-23T07:04:13.864Z,5.78
2022-12-23T07:06:43.392Z,5.80
2022-12-23T07:09:15.490Z,5.81
2022-12-23T07:11:49.316Z,5.82
2022-12-23T07:14:18.947Z,5.84
2022-12-23T07:16:49.907Z,5.85
2022-12-23T07:19:22.289Z,5.88
2022-12-23T07:21:51.906Z,5.88
2022-12-23T07:24:21.387Z,5.90
2022-12-23T07:26:52.512Z,5.91
2022-12-23T07:29:22.206Z,5.93
2022-12-23T07:31:51.642Z,5.93
2022-12-23T07:34:22.143Z,5.94
2022-12-23T07:36:51.332Z,5.93
2022-12-23T07:39:22.014Z,5.94
2022-12-23T07:42:03.810Z,5.95
2022-12-23T07:44:40.865Z,5.94
2022-12-23T07:47:14.547Z,5.94
2022-12-23T07:49:43.798Z,5.94
2022-12-23T07:52:18.511Z,5.93
2022-12-23T07:54:47.678Z,5.93
2022-12-23T07:57:16.909Z,5.94
2022-12-23T07:59:46.355Z,5.95
2022-12-23T08:02:15.875Z,5.96
2022-12-23T08:04:46.442Z,5.96
2022-12-23T08:07:17.490Z,5.97
2022-12-23T08:09:46.728Z,6.02
2022-12-23T08:12:16.608Z,6.01
2022-12-23T08:14:48.553Z,6.02
2022-12-23T08:17:17.790Z,6.01
2022-12-23T08:19:49.409Z,6.00
2022-12-23T08:22:18.564Z,5.99
2022-12-23T08:24:49.225Z,5.97
2022-12-23T08:27:21.122Z,5.99
2022-12-23T08:29:50.224Z,6.03
2022-12-23T08:32:19.383Z,6.08
2022-12-23T08:34:48.652Z,6.11
2022-12-23T08:37:17.760Z,6.18
2022-12-23T08:39:47.280Z,6.24
2022-12-23T08:42:16.477Z,6.31
2022-12-23T08:44:45.738Z,6.37
2022-12-23T08:47:15.262Z,6.40
2022-12-23T08:49:44.575Z,6.41
2022-12-23T08:52:13.782Z,6.40
2022-12-23T08:54:45.344Z,6.40
2022-12-23T08:57:14.680Z,6.40
2022-12-23T08:59:43.987Z,6.45
2022-12-23T09:02:13.399Z,6.47
2022-12-23T09:04:43.064Z,6.48
2022-12-23T09:07:14.480Z,6.51
2022-12-23T09:09:43.448Z,6.54
2022-12-23T09:12:13.605Z,6.56
2022-12-23T09:14:47.768Z,6.57
2022-12-23T09:17:20.065Z,6.57
2022-12-23T09:19:54.525Z,6.58
2022-12-23T09:22:23.674Z,6.62
2022-12-23T09:24:52.759Z,6.65
2022-12-23T09:27:21.833Z,6.69
2022-12-23T09:29:50.968Z,6.73
2022-12-23T09:32:20.129Z,6.79
2022-12-23T09:34:51.419Z,6.80
2022-12-23T09:37:20.514Z,6.82
2022-12-23T09:39:49.505Z,6.85
2022-12-23T09:42:50.050Z,6.91
2022-12-23T09:45:28.210Z,6.95
2022-12-23T09:47:57.987Z,7.01
2022-12-23T09:50:31.879Z,7.06
2022-12-23T09:53:19.132Z,7.08
2022-12-23T09:55:51.348Z,7.12
2022-12-23T09:58:32.351Z,7.13
2022-12-23T10:01:47.803Z,7.15
2022-12-23T10:04:22.699Z,7.17
2022-12-23T10:07:04.141Z,7.24
2022-12-23T10:09:39.299Z,7.25
2022-12-23T10:12:40.237Z,7.28
2022-12-23T10:15:31.636Z,7.27
2022-12-23T10:18:18.835Z,7.30
2022-12-23T10:21:11.591Z,7.35
2022-12-23T10:23:46.781Z,7.40
2022-12-23T10:26:35.249Z,7.46
2022-12-23T10:29:27.114Z,7.49
2022-12-23T10:32:22.782Z,7.51
2022-12-23T10:35:05.140Z,7.52
2022-12-23T10:37:57.835Z,7.56
2022-12-23T10:41:09.010Z,7.60
2022-12-23T10:43:44.413Z,7.64
2022-12-23T10:46:40.082Z,7.67
2022-12-23T10:49:37.368Z,7.69
2022-12-23T10:52:20.975Z,7.70
2022-12-23T10:54:50.138Z,7.71
2022-12-23T10:57:21.190Z,7.73
2022-12-23T10:59:50.537Z,7.74
2022-12-23T11:02:56.542Z,7.77
2022-12-23T11:05:29.967Z,7.77
2022-12-23T11:08:08.577Z,7.77
2022-12-23T11:10:41.678Z,7.81
2022-12-23T11:13:11.396Z,7.85
2022-12-23T11:15:41.741Z,7.89
2022-12-23T11:18:17.653Z,7.92
2022-12-23T11:21:09.813Z,7.94
2022-12-23T11:23:45.018Z,7.93
2022-12-23T11:26:20.775Z,7.94
2022-12-23T11:29:05.037Z,7.97
2022-12-23T11:31:36.949Z,8.00
2022-12-23T11:34:20.421Z,8.01
2022-12-23T11:37:03.701Z,8.01
2022-12-23T11:39:38.297Z,8.01
2022-12-23T11:42:24.716Z,8.04
2022-12-23T11:44:57.524Z,8.05
2022-12-23T11:47:41.886Z,8.08
2022-12-23T11:50:36.435Z,8.10
2022-12-23T11:53:25.679Z,8.11
2022-12-23T11:56:09.074Z,8.10
2022-12-23T11:59:02.271Z,8.11
2022-12-23T12:01:32.671Z,8.11
2022-12-23T12:04:08.095Z,8.14
2022-12-23T12:06:51.193Z,8.16
2022-12-23T12:09:25.047Z,8.18
2022-12-23T12:12:07.721Z,8.21
2022-12-23T12:14:49.976Z,8.20
2022-12-23T12:17:36.686Z,8.23
2022-12-23T12:20:30.941Z,8.17
2022-12-23T12:23:10.799Z,8.19
2022-12-23T12:25:50.834Z,8.25
2022-12-23T12:28:45.943Z,8.31
2022-12-23T12:31:26.207Z,8.36
2022-12-23T12:34:33.197Z,8.41
2022-12-23T12:37:36.881Z,8.43
2022-12-23T12:40:26.144Z,8.48
2022-12-23T12:43:20.995Z,8.55
2022-12-23T12:46:14.552Z,8.61
2022-12-23T12:49:04.998Z,8.67
2022-12-23T12:51:58.193Z,8.68
2022-12-23T12:54:55.193Z,8.68
2022-12-23T12:57:25.188Z,8.69
2022-12-23T13:00:05.176Z,8.67
2022-12-23T13:02:35.392Z,8.68
2022-12-23T13:05:53.512Z,8.70
2022-12-23T13:09:13.365Z,8.69
2022-12-23T13:12:36.117Z,8.69
2022-12-23T13:15:23.940Z,8.69
2022-12-23T13:18:04.951Z,8.72
2022-12-23T13:20:46.526Z,8.72
2022-12-23T13:23:45.654Z,8.73
2022-12-23T13:26:59.266Z,8.75
2022-12-23T13:29:58.556Z,8.75
2022-12-23T13:33:04.580Z,8.75
2022-12-23T13:36:12.361Z,8.71
2022-12-23T13:39:28.223Z,8.72
2022-12-23T13:42:05.032Z,8.69
2022-12-23T13:44:35.774Z,8.69
2022-12-23T13:48:05.382Z,8.70
2022-12-23T13:51:04.466Z,8.69
2022-12-23T13:53:33.679Z,8.69
2022-12-23T13:56:09.040Z,8.72
2022-12-23T13:58:40.470Z,8.77
2022-12-23T14:01:09.803Z,8.80
2022-12-23T14:03:40.003Z,8.84
2022-12-23T14:06:24.300Z,8.87
2022-12-23T14:08:55.755Z,8.88
2022-12-23T14:11:32.006Z,8.89
2022-12-23T14:14:05.822Z,8.88
2022-12-23T14:17:03.546Z,8.88
2022-12-23T14:20:03.526Z,8.86
2022-12-23T14:23:00.222Z,8.86
2022-12-23T14:26:02.728Z,8.88
2022-12-23T14:28:40.706Z,8.88
2022-12-23T14:31:41.685Z,8.81
2022-12-23T14:34:20.292Z,8.81
2022-12-23T14:37:24.381Z,8.85
2022-12-23T14:39:57.626Z,8.86
2022-12-23T14:42:43.180Z,8.87
2022-12-23T14:45:35.660Z,8.86
2022-12-23T14:48:34.108Z,8.86
2022-12-23T14:51:09.447Z,8.82
2022-12-23T14:54:00.550Z,8.80
2022-12-23T14:56:41.511Z,8.80
2022-12-23T14:59:56.868Z,8.82
2022-12-23T15:02:39.200Z,8.83
2022-12-23T15:05:08.955Z,8.86
2022-12-23T15:07:47.230Z,8.89
2022-12-23T15:10:26.992Z,8.91
2022-12-23T15:13:02.909Z,8.91
2022-12-23T15:15:33.695Z,8.93
2022-12-23T15:18:06.914Z,8.95
2022-12-23T15:20:37.556Z,8.98
2022-12-23T15:23:19.588Z,9.03
2022-12-23T15:25:51.437Z,9.06
2022-12-23T15:28:23.125Z,9.08
2022-12-23T15:30:55.741Z,8.98
2022-12-23T15:36:32.421Z,8.95
2022-12-23T15:39:10.686Z,8.93
2022-12-23T15:41:45.424Z,8.89
2022-12-23T15:44:25.848Z,8.89
2022-12-23T15:46:55.480Z,8.92
2022-12-23T15:49:25.097Z,8.94
2022-12-23T15:52:09.884Z,8.95
2022-12-23T15:55:25.604Z,8.90
2022-12-23T15:57:55.110Z,8.84
2022-12-23T16:00:27.470Z,8.81
2022-12-23T16:03:01.865Z,8.79
2022-12-23T16:05:37.971Z,8.75
2022-12-23T16:08:16.622Z,8.73
2022-12-23T16:11:17.251Z,8.72
2022-12-23T16:14:03.163Z,8.72
2022-12-23T16:16:44.245Z,8.71
2022-12-23T16:19:56.075Z,8.68
2022-12-23T16:22:36.467Z,8.64
2022-12-23T16:25:17.389Z,8.65
2022-12-23T16:27:50.497Z,8.68
2022-12-23T16:30:29.070Z,8.70
2022-12-23T16:33:42.013Z,8.71
2022-12-23T16:36:23.797Z,8.72
2022-12-23T16:39:17.088Z,8.73
2022-12-23T16:41:46.209Z,8.71
2022-12-23T16:44:17.991Z,8.72
2022-12-23T16:46:52.065Z,8.73
2022-12-23T16:49:27.927Z,8.71
2022-12-23T16:52:01.367Z,8.69
2022-12-23T16:54:30.665Z,8.68
2022-12-23T16:57:02.404Z,8.65
2022-12-23T16:59:31.876Z,8.61
2022-12-23T17:02:03.739Z,8.49
2022-12-23T17:04:33.547Z,8.49
2022-12-23T17:07:17.768Z,8.50
2022-12-23T17:09:47.526Z,8.49
2022-12-23T17:12:17.131Z,8.50
2022-12-23T17:14:46.630Z,8.51
2022-12-23T17:17:21.662Z,8.50
2022-12-23T17:20:00.170Z,8.50
2022-12-23T17:22:33.051Z,8.39
2022-12-23T17:25:10.549Z,8.35
2022-12-23T17:27:40.581Z,8.36
2022-12-23T17:30:24.724Z,8.38
2022-12-23T17:33:00.582Z,8.38
2022-12-23T17:35:30.220Z,8.40
2022-12-23T17:38:01.442Z,8.41
2022-12-23T17:40:32.511Z,8.41
2022-12-23T17:43:02.053Z,8.41
2022-12-23T17:45:37.485Z,8.40
2022-12-23T17:48:08.975Z,8.41
2022-12-23T17:50:41.312Z,8.42
2022-12-23T17:53:19.386Z,8.41
2022-12-23T17:55:50.368Z,8.41
2022-12-23T17:58:24.714Z,8.42
2022-12-23T18:00:55.106Z,8.43
2022-12-23T18:03:26.208Z,8.36
2022-12-23T18:06:01.829Z,8.34
2022-12-23T18:08:31.934Z,8.34
2022-12-23T18:11:01.787Z,8.33
2022-12-23T18:13:31.842Z,8.33
2022-12-23T18:16:01.025Z,8.33
2022-12-23T18:18:41.781Z,8.33
2022-12-23T18:21:25.909Z,8.30
2022-12-23T18:23:58.879Z,8.28
2022-12-23T18:26:28.613Z,8.27
2022-12-23T18:29:00.965Z,8.25
2022-12-23T18:31:31.433Z,8.25
2022-12-23T18:34:05.518Z,8.27
2022-12-23T18:36:35.033Z,8.26
2022-12-23T18:39:04.253Z,8.25
2022-12-23T18:41:33.895Z,8.24
2022-12-23T18:44:03.231Z,8.23
2022-12-23T18:46:32.505Z,8.23
2022-12-23T18:49:02.549Z,8.25
2022-12-23T18:51:32.195Z,8.26
2022-12-23T18:54:02.846Z,8.25
2022-12-23T18:56:35.352Z,8.24
2022-12-23T18:59:22.542Z,8.22
2022-12-23T19:01:57.885Z,8.21
2022-12-23T19:04:38.436Z,8.23
2022-12-23T19:07:09.446Z,8.23
2022-12-23T19:09:39.186Z,8.23
2022-12-23T19:12:11.255Z,8.24
2022-12-23T19:14:47.546Z,8.24
2022-12-23T19:17:21.424Z,8.22
2022-12-23T19:19:59.036Z,8.20
2022-12-23T19:22:32.161Z,8.19
2022-12-23T19:25:15.234Z,8.18
2022-12-23T19:28:05.773Z,8.15
2022-12-23T19:30:45.573Z,8.16
2022-12-23T19:33:42.304Z,8.15
2022-12-23T19:36:23.680Z,8.13
2022-12-23T19:39:08.501Z,8.12
2022-12-23T19:41:38.564Z,8.11
2022-12-23T19:44:09.519Z,8.12
2022-12-23T19:46:42.201Z,8.06
2022-12-23T19:49:19.495Z,7.99
2022-12-23T19:51:49.657Z,7.94
2022-12-23T19:54:20.155Z,7.95
2022-12-23T19:56:57.306Z,7.96
2022-12-23T19:59:29.663Z,7.98
2022-12-23T20:02:00.607Z,8.00
2022-12-23T20:04:35.204Z,8.01
2022-12-23T20:07:04.926Z,8.03
2022-12-23T20:09:34.627Z,7.95
2022-12-23T20:12:04.801Z,7.93
2022-12-23T20:14:46.291Z,7.91
2022-12-23T20:17:15.980Z,7.90
2022-12-23T20:19:47.146Z,7.91
2022-12-23T20:22:17.089Z,7.87
2022-12-23T20:24:53.128Z,7.84
2022-12-23T20:27:32.644Z,7.81
2022-12-23T20:30:02.784Z,7.83
2022-12-23T20:32:32.369Z,7.81
2022-12-23T20:35:02.115Z,7.79
2022-12-23T20:37:37.098Z,7.78
2022-12-23T20:40:10.529Z,7.77
2022-12-23T20:42:40.156Z,7.75
2022-12-23T20:45:13.768Z,7.73
2022-12-23T20:47:43.802Z,7.72
2022-12-23T20:50:16.216Z,7.71
2022-12-23T20:52:45.799Z,7.69
2022-12-23T20:55:22.606Z,7.60
2022-12-23T20:57:54.692Z,7.62
2022-12-23T21:00:30.931Z,7.67
2022-12-23T21:03:10.663Z,7.69
2022-12-23T21:06:01.976Z,7.67
2022-12-23T21:08:31.549Z,7.66
2022-12-23T21:11:01.096Z,7.69
2022-12-23T21:13:35.610Z,7.72
2022-12-23T21:16:13.283Z,7.72
2022-12-23T21:18:55.170Z,7.72
2022-12-23T21:21:26.984Z,7.73
2022-12-23T21:24:05.474Z,7.74
2022-12-23T21:26:40.921Z,7.76
2022-12-23T21:29:12.080Z,7.75
2022-12-23T21:31:44.981Z,7.72
2022-12-23T21:34:23.389Z,7.68
2022-12-23T21:36:52.966Z,7.69
2022-12-23T21:39:23.225Z,7.72
2022-12-23T21:41:56.977Z,7.73
2022-12-23T21:44:30.380Z,7.70
2022-12-23T21:47:06.717Z,7.66
2022-12-23T21:50:28.681Z,7.61
2022-12-23T21:53:06.733Z,7.60
2022-12-23T21:55:37.746Z,7.58
2022-12-23T21:58:07.601Z,7.57
2022-12-23T22:00:39.326Z,7.58
2022-12-23T22:03:08.788Z,7.59
2022-12-23T22:05:44.379Z,7.56
2022-12-23T22:08:14.093Z,7.54
2022-12-23T22:10:44.163Z,7.55
2022-12-23T22:13:16.211Z,7.54
2022-12-23T22:15:45.801Z,7.54
2022-12-23T22:18:15.147Z,7.44
2022-12-23T22:20:46.792Z,7.46
2022-12-23T22:23:18.027Z,7.44
2022-12-23T22:25:57.035Z,7.43
2022-12-23T22:28:26.563Z,7.39
2022-12-23T22:31:06.306Z,7.34
2022-12-23T22:33:38.270Z,7.32
2022-12-23T22:36:11.759Z,7.27
2022-12-23T22:38:47.020Z,7.27
2022-12-23T22:41:16.756Z,7.30
2022-12-23T22:43:48.877Z,7.30
2022-12-23T22:46:29.294Z,7.28
2022-12-23T22:49:02.221Z,7.26
2022-12-23T22:51:34.704Z,7.27
2022-12-23T22:54:04.544Z,7.30
2022-12-23T22:56:43.717Z,7.32
2022-12-23T22:59:31.079Z,7.28
2022-12-23T23:02:04.813Z,7.28
2022-12-23T23:04:40.644Z,7.32
2022-12-23T23:07:14.788Z,7.35
2022-12-23T23:09:44.383Z,7.35
2022-12-23T23:12:13.877Z,7.31
2022-12-23T23:14:53.968Z,7.27
2022-12-23T23:17:28.421Z,7.22
2022-12-23T23:19:59.865Z,7.23
2022-12-23T23:22:32.076Z,7.22
2022-12-23T23:25:05.486Z,7.21
2022-12-23T23:27:38.080Z,7.19
2022-12-23T23:30:08.891Z,7.18
2022-12-23T23:32:41.821Z,7.12
2022-12-23T23:35:11.465Z,7.07
2022-12-23T23:37:40.804Z,7.10
2022-12-23T23:40:10.809Z,7.14
2022-12-23T23:42:42.673Z,7.16
2022-12-23T23:45:15.995Z,7.16
2022-12-23T23:47:52.505Z,7.15
2022-12-23T23:50:28.644Z,7.10
2022-12-23T23:53:01.858Z,7.04
2022-12-23T23:55:41.445Z,6.99
2022-12-23T23:58:16.790Z,6.97
